createdAt,value
2023-04-23T00:02:55.016Z,22.8
2023-04-23T00:08:49.043Z,25.1
2023-04-23T00:14:41.003Z,23.1
2023-04-23T00:20:32.163Z,23.3
2023-04-23T00:26:23.043Z,23.3
2023-04-23T00:32:15.118Z,23.1
2023-04-23T00:37:50.470Z,22.8
2023-04-23T00:43:41.849Z,22.5
2023-04-23T00:49:33.983Z,23.4
2023-04-23T00:55:25.673Z,24.9
2023-04-23T01:01:16.313Z,23.2
2023-04-23T01:07:09.332Z,23.3
2023-04-23T01:13:00.044Z,23.3
2023-04-23T01:18:36.501Z,23
2023-04-23T01:24:27.733Z,22.8
2023-04-23T01:30:19.037Z,22.4
2023-04-23T01:36:10.900Z,24.1
2023-04-23T01:42:02.293Z,23.6
2023-04-23T01:47:56.620Z,23.3
2023-04-23T01:53:48.248Z,23.3
2023-04-23T01:59:23.308Z,23.2
2023-04-23T02:05:16.444Z,22.9
2023-04-23T02:11:08.068Z,22.6
2023-04-23T02:16:59.856Z,22.7
2023-04-23T02:22:52.179Z,25.1
2023-04-23T02:28:43.713Z,23.3
2023-04-23T02:34:35.754Z,23.6
2023-04-23T02:40:26.998Z,23.3
2023-04-23T02:46:18.371Z,23.1
2023-04-23T02:52:09.874Z,22.7
2023-04-23T02:58:01.511Z,22.5
2023-04-23T03:03:55.009Z,22.1
2023-04-23T03:09:31.034Z,23.6
2023-04-23T03:15:22.558Z,24.8
2023-04-23T03:21:14.238Z,23.3
2023-04-23T03:27:05.361Z,23.6
2023-04-23T03:32:58.735Z,23.1
2023-04-23T03:38:50.817Z,22.9
2023-04-23T03:44:26.601Z,22.6
2023-04-23T03:50:02.730Z,22.4
2023-04-23T03:55:38.941Z,22.3
2023-04-23T04:01:30.100Z,24.3
2023-04-23T04:07:24.949Z,23.4
2023-04-23T04:13:16.387Z,23.3
2023-04-23T04:19:10.183Z,23.4
2023-04-23T04:25:00.892Z,23.1
2023-04-23T04:30:52.334Z,22.8
2023-04-23T04:36:44.057Z,22.6
2023-04-23T04:42:35.570Z,22.2
2023-04-23T04:48:27.717Z,22.1
2023-04-23T04:54:19.074Z,24.3
2023-04-23T04:59:54.822Z,23.5
2023-04-23T05:05:48.485Z,23.2
2023-04-23T05:11:41.288Z,23.3
2023-04-23T05:17:32.862Z,23.1
2023-04-23T05:23:24.758Z,22.9
2023-04-23T05:29:16.656Z,22.6
2023-04-23T05:35:14.515Z,23.6
2023-04-23T05:41:07.524Z,24.3
2023-04-23T05:46:59.632Z,23.2
2023-04-23T05:52:53.237Z,23.3
2023-04-23T05:58:44.887Z,23.2
2023-04-23T06:04:24.178Z,22.9
2023-04-23T06:10:19.254Z,22.6
2023-04-23T06:16:12.531Z,23.3
2023-04-23T06:22:04.152Z,25.1
2023-04-23T06:27:55.886Z,23.2
2023-04-23T06:33:47.754Z,23.3
2023-04-23T06:39:49.600Z,23.2
2023-04-23T06:45:41.350Z,22.9
2023-04-23T06:51:33.590Z,22.7
2023-04-23T06:57:25.554Z,23.4
2023-04-23T07:03:19.203Z,24.4
2023-04-23T07:09:11.486Z,23.2
2023-04-23T07:15:02.756Z,23.3
2023-04-23T07:20:54.195Z,23.2
2023-04-23T07:26:45.296Z,22.9
2023-04-23T07:32:36.743Z,22.6
2023-04-23T07:38:28.433Z,24
2023-04-23T07:44:22.693Z,23.6
2023-04-23T07:50:15.395Z,23.2
2023-04-23T07:55:51.374Z,23.3
2023-04-23T08:01:45.428Z,23.1
2023-04-23T08:07:40.099Z,22.9
2023-04-23T08:13:31.198Z,22.6
2023-04-23T08:19:38.772Z,24.6
2023-04-23T08:25:30.721Z,23.4
2023-04-23T08:31:19.092Z,23.3
2023-04-23T08:36:59.879Z,23.3
2023-04-23T08:42:47.741Z,23.1
2023-04-23T08:48:24.265Z,22.8
2023-04-23T08:54:15.704Z,22.6
2023-04-23T08:59:52.243Z,24.4
2023-04-23T09:05:30.798Z,23.4
2023-04-23T09:11:24.965Z,23.3
2023-04-23T09:17:15.692Z,23.3
2023-04-23T09:22:51.083Z,23.1
2023-04-23T09:28:42.873Z,22.9
2023-04-23T09:34:19.734Z,22.6
2023-04-23T09:39:55.489Z,22.3
2023-04-23T09:45:47.842Z,21.9
2023-04-23T09:51:24.735Z,21.6
2023-04-23T09:57:17.032Z,21.4
2023-04-23T10:10:25.058Z,20.8
2023-04-23T10:17:22.870Z,20.5
2023-04-23T10:23:25.752Z,20.3
2023-04-23T10:29:33.430Z,20.1
2023-04-23T10:35:55.080Z,19.9
2023-04-23T10:41:47.983Z,19.6
2023-04-23T10:47:49.984Z,19.4
2023-04-23T10:54:26.809Z,19.3
2023-04-23T11:00:18.119Z,19.1
2023-04-23T11:06:14.140Z,18.9
2023-04-23T11:12:13.231Z,18.8
2023-04-23T11:23:45.383Z,18.6
2023-04-23T11:29:36.694Z,18.4
2023-04-23T11:35:38.368Z,18.4
2023-04-23T11:41:14.861Z,18.3
2023-04-23T11:46:35.830Z,18.1
2023-04-23T11:52:13.192Z,18.1
2023-04-23T11:58:05.163Z,18
2023-04-23T12:03:58.723Z,17.9
2023-04-23T12:10:00.583Z,17.8
2023-04-23T12:15:36.010Z,17.8
2023-04-23T12:21:29.952Z,17.7
2023-04-23T12:27:21.975Z,17.6
2023-04-23T12:33:14.163Z,17.6
2023-04-23T12:39:05.767Z,17.6
2023-04-23T12:44:56.749Z,17.5
2023-04-23T12:50:49.310Z,17.4
2023-04-23T12:56:40.926Z,17.4
2023-04-23T13:02:33.365Z,17.3
2023-04-23T13:08:27.208Z,17.3
2023-04-23T13:14:03.918Z,17.3
2023-04-23T13:19:56.570Z,17.3
2023-04-23T13:25:50.345Z,17.2
2023-04-23T13:31:26.896Z,17.2
2023-04-23T13:37:02.956Z,17.1
2023-04-23T13:43:09.022Z,17.1
2023-04-23T13:49:00.922Z,17.1
2023-04-23T13:55:09.212Z,17.1
2023-04-23T14:00:58.063Z,17.1
2023-04-23T14:23:44.819Z,16.9
2023-04-23T14:29:51.147Z,16.9
2023-04-23T14:35:58.083Z,16.9
2023-04-23T14:41:49.493Z,16.9
2023-04-23T14:47:53.237Z,16.9
2023-04-23T14:53:29.470Z,16.9
2023-04-23T14:59:20.709Z,16.8
2023-04-23T15:05:16.120Z,16.8
2023-04-23T15:11:07.833Z,16.8
2023-04-23T15:17:10.689Z,16.8
2023-04-23T15:23:02.615Z,16.8
2023-04-23T15:28:54.646Z,16.8
2023-04-23T15:34:31.598Z,16.8
2023-04-23T15:40:24.093Z,16.8
2023-04-23T15:46:15.480Z,16.8
2023-04-23T15:52:07.233Z,16.8
2023-04-23T15:57:59.876Z,16.7
2023-04-23T16:04:09.210Z,16.7
2023-04-23T16:10:03.921Z,16.8
2023-04-23T16:15:55.995Z,16.7
2023-04-23T16:21:48.976Z,16.7
2023-04-23T16:27:40.975Z,16.7
2023-04-23T16:33:53.268Z,16.7
2023-04-23T16:39:44.508Z,16.7
2023-04-23T16:45:36.412Z,16.7
2023-04-23T16:51:30.156Z,16.7
2023-04-23T16:57:23.682Z,16.7
2023-04-23T17:03:16.900Z,16.7
2023-04-23T17:09:11.167Z,16.6
2023-04-23T17:14:48.893Z,16.7
2023-04-23T17:20:26.479Z,16.7
2023-04-23T17:26:19.568Z,16.6
2023-04-23T17:32:12.843Z,16.6
2023-04-23T17:38:12.631Z,16.6
2023-04-23T17:44:05.978Z,16.6
2023-04-23T17:50:01.922Z,16.6
2023-04-23T17:55:58.257Z,16.6
2023-04-23T18:01:38.683Z,16.6
2023-04-23T18:07:36.307Z,16.6
2023-04-23T18:13:15.239Z,16.6
2023-04-23T18:18:53.455Z,16.6
2023-04-23T18:24:33.276Z,16.6
2023-04-23T18:29:55.261Z,16.6
2023-04-23T18:35:46.214Z,16.6
2023-04-23T18:42:18.771Z,16.6
2023-04-23T18:47:57.168Z,16.6
2023-04-23T18:53:38.559Z,16.6
2023-04-23T18:59:16.424Z,16.6
2023-04-23T19:05:36.934Z,16.6
2023-04-23T19:11:30.721Z,16.7
2023-04-23T19:16:53.178Z,16.6
2023-04-23T19:22:46.494Z,16.7
2023-04-23T19:28:24.885Z,16.6
2023-04-23T19:34:18.376Z,16.6
2023-04-23T19:39:56.314Z,16.6
2023-04-23T19:45:34.043Z,16.6
2023-04-23T19:51:12.417Z,16.6
2023-04-23T19:56:52.140Z,16.6
2023-04-23T20:02:45.800Z,16.6
2023-04-23T20:08:24.375Z,16.6
2023-04-23T20:14:01.428Z,16.6
2023-04-23T20:19:42.014Z,16.6
2023-04-23T20:25:04.089Z,16.6
2023-04-23T20:30:41.675Z,16.6
2023-04-23T20:36:19.022Z,16.6
2023-04-23T20:41:55.771Z,16.6
2023-04-23T20:47:31.644Z,16.6
2023-04-23T20:53:23.216Z,16.6
2023-04-23T20:58:59.187Z,17.8
2023-04-23T21:04:52.934Z,22.8
2023-04-23T21:10:44.692Z,25.6
2023-04-23T21:16:36.369Z,24.3
2023-04-23T21:22:28.112Z,23
2023-04-23T21:28:22.214Z,23.3
2023-04-23T21:33:58.188Z,23.9
2023-04-23T21:39:49.698Z,26.3
2023-04-23T21:45:41.276Z,23.4
2023-04-23T21:51:33.410Z,23.4
2023-04-23T21:57:25.312Z,23.6
2023-04-23T22:03:53.903Z,23.4
2023-04-23T22:09:45.066Z,25.5
2023-04-23T22:15:51.075Z,24.2
2023-04-23T22:21:56.081Z,23.6
2023-04-23T22:27:46.349Z,23.7
2023-04-23T22:33:22.427Z,23.6
2023-04-23T22:39:14.652Z,23.4
2023-04-23T22:44:52.132Z,25.5
2023-04-23T22:50:28.126Z,24.2
2023-04-23T22:55:50.916Z,23.6
2023-04-23T23:01:26.865Z,23.8
2023-04-23T23:06:48.242Z,23.8
2023-04-23T23:12:39.584Z,23.6
2023-04-23T23:18:15.633Z,24.1
2023-04-23T23:24:06.647Z,26.8
2023-04-23T23:29:58.296Z,23.8
2023-04-23T23:35:49.554Z,23.8
2023-04-23T23:41:40.317Z,23.9
2023-04-23T23:47:35.422Z,23.7
2023-04-23T23:53:11.799Z,23.4
2023-04-23T23:58:48.143Z,25.4
